Bush, Illinois
Current Conditions -  °F | °C
As of 7:20 PM on Wednesday 26 Nov 2014 (Local Time) from KMDH Reporting Station
Haze Haze  
Wind Chill: 32°   Ceiling: 1700
Heat Index: 32°   Visibility: 2.5mi
Dew Point: 31°   Wind: 0mph
Humidity: 96%   Direction: NA
Pressure: 30.06"   Gusts: NA
Location:  37.8209°N, 89.2055°W
Report Text: KMDH 270120Z AUTO 00000KT 2 1/2SM BR SCT006 OVC017 00/M01 A3006 RMK AO2 P0001 T00001006
Loading
Personal Weather Stations






























Interactive Weather Map New forecast layout! Learn more

10-Day Weather Forecast

Advertisements
Track Severe Weather on mobile